createdAt,value
2022-12-24T00:01:06.687Z,81.75
2022-12-24T00:03:36.786Z,80.72
2022-12-24T00:06:09.275Z,78.92
2022-12-24T00:08:36.955Z,76.40
2022-12-24T00:11:05.224Z,80.90
2022-12-24T00:13:33.358Z,81.10
2022-12-24T00:16:01.547Z,80.45
2022-12-24T00:18:29.491Z,78.37
2022-12-24T00:20:57.047Z,70.30
2022-12-24T00:23:24.801Z,73.87
2022-12-24T00:25:52.599Z,74.75
2022-12-24T00:28:22.399Z,70.62
2022-12-24T00:30:50.121Z,70.62
2022-12-24T00:33:24.071Z,82.88
2022-12-24T00:35:51.167Z,97.00
2022-12-24T00:38:18.794Z,78.78
2022-12-24T00:40:46.200Z,79.97
2022-12-24T00:43:14.022Z,77.25
2022-12-24T00:45:41.663Z,85.38
2022-12-24T00:48:09.089Z,90.32
2022-12-24T00:50:36.443Z,95.20
2022-12-24T00:53:05.525Z,96.40
2022-12-24T00:55:33.001Z,105.97
2022-12-24T00:58:00.509Z,94.42
2022-12-24T01:00:28.499Z,103.85
2022-12-24T01:02:56.109Z,97.22
2022-12-24T01:05:24.782Z,93.52
2022-12-24T01:07:56.278Z,89.83
2022-12-24T01:10:24.772Z,90.35
2022-12-24T01:12:53.010Z,88.80
2022-12-24T01:15:21.597Z,92.08
2022-12-24T01:17:49.935Z,81.12
2022-12-24T01:20:18.909Z,81.40
2022-12-24T01:22:48.688Z,86.60
2022-12-24T01:25:17.063Z,86.30
2022-12-24T01:27:45.523Z,128.30
2022-12-24T01:30:15.353Z,131.43
2022-12-24T01:32:43.237Z,105.75
2022-12-24T01:35:12.315Z,116.97
2022-12-24T01:37:42.041Z,119.02
2022-12-24T01:40:35.784Z,98.65
2022-12-24T01:43:22.953Z,99.17
2022-12-24T01:46:04.541Z,106.20
2022-12-24T01:48:55.398Z,102.22
2022-12-24T01:51:40.610Z,101.97
2022-12-24T01:54:25.726Z,91.55
2022-12-24T01:56:58.444Z,95.40
2022-12-24T01:59:27.966Z,84.17
2022-12-24T02:01:55.627Z,81.80
2022-12-24T02:04:38.029Z,81.80
2022-12-24T02:07:05.906Z,79.40
2022-12-24T02:09:35.708Z,84.37
2022-12-24T02:12:06.117Z,78.30
2022-12-24T02:14:34.930Z,76.53
2022-12-24T02:17:22.900Z,91.12
2022-12-24T02:20:05.398Z,98.35
2022-12-24T02:23:00.280Z,87.08
2022-12-24T02:26:05.173Z,81.25
2022-12-24T02:28:59.622Z,82.97
2022-12-24T02:31:45.068Z,82.02
2022-12-24T02:34:29.931Z,79.30
2022-12-24T02:37:23.827Z,70.00
2022-12-24T02:39:56.744Z,73.07
2022-12-24T02:42:29.964Z,74.77
2022-12-24T02:45:10.924Z,72.10
2022-12-24T02:47:41.196Z,73.85
2022-12-24T02:50:12.187Z,69.45
2022-12-24T02:52:46.277Z,69.37
2022-12-24T02:55:19.071Z,69.90
2022-12-24T02:58:13.405Z,69.12
2022-12-24T03:00:55.829Z,70.05
2022-12-24T03:03:28.713Z,79.77
2022-12-24T03:06:13.824Z,91.45
2022-12-24T03:08:52.798Z,76.22
2022-12-24T03:11:20.744Z,78.65
2022-12-24T03:13:50.136Z,77.35
2022-12-24T03:16:23.419Z,69.47
2022-12-24T03:18:54.367Z,68.85
2022-12-24T03:21:32.956Z,69.87
2022-12-24T03:24:01.169Z,62.83
2022-12-24T03:26:31.300Z,66.85
2022-12-24T03:28:59.680Z,61.40
2022-12-24T03:31:27.308Z,55.52
2022-12-24T03:33:55.177Z,59.03
2022-12-24T03:36:24.923Z,59.40
2022-12-24T03:38:52.598Z,54.65
2022-12-24T03:41:20.087Z,51.75
2022-12-24T03:43:47.705Z,53.42
2022-12-24T03:46:15.430Z,58.45
2022-12-24T03:48:42.925Z,75.92
2022-12-24T03:51:20.195Z,76.92
2022-12-24T03:53:47.962Z,82.92
2022-12-24T03:56:15.635Z,93.50
2022-12-24T03:58:43.439Z,79.97
2022-12-24T04:01:11.313Z,60.12
2022-12-24T04:03:38.909Z,56.28
2022-12-24T04:06:13.322Z,54.85
2022-12-24T04:08:41.699Z,53.35
2022-12-24T04:11:13.120Z,53.68
2022-12-24T04:13:40.903Z,62.98
2022-12-24T04:16:12.574Z,59.33
2022-12-24T04:18:41.260Z,58.90
2022-12-24T04:21:10.192Z,62.98
2022-12-24T04:23:40.262Z,60.73
2022-12-24T04:26:11.199Z,68.60
2022-12-24T04:28:38.895Z,66.40
2022-12-24T04:31:11.374Z,64.00
2022-12-24T04:33:39.403Z,60.75
2022-12-24T04:36:08.353Z,67.53
2022-12-24T04:38:36.119Z,63.35
2022-12-24T04:41:13.735Z,93.37
2022-12-24T04:43:41.088Z,76.17
2022-12-24T04:46:15.201Z,65.85
2022-12-24T04:48:42.554Z,66.35
2022-12-24T04:51:10.924Z,75.60
2022-12-24T04:53:41.240Z,69.40
2022-12-24T04:56:14.331Z,67.75
2022-12-24T04:58:42.404Z,76.02
2022-12-24T05:01:23.109Z,63.63
2022-12-24T05:03:52.882Z,63.40
2022-12-24T05:06:24.537Z,57.08
2022-12-24T05:08:55.388Z,56.02
2022-12-24T05:11:22.921Z,53.73
2022-12-24T05:13:51.119Z,50.28
2022-12-24T05:16:21.237Z,56.33
2022-12-24T05:18:49.180Z,55.40
2022-12-24T05:21:21.075Z,57.17
2022-12-24T05:24:07.484Z,66.87
2022-12-24T05:26:44.785Z,61.53
2022-12-24T05:29:12.919Z,52.48
2022-12-24T05:31:42.289Z,52.43
2022-12-24T05:34:10.692Z,45.90
2022-12-24T05:36:39.085Z,50.48
2022-12-24T05:39:15.173Z,90.20
2022-12-24T05:41:38.722Z,105.07
2022-12-24T05:44:06.404Z,67.20
2022-12-24T05:46:34.434Z,51.05
2022-12-24T05:49:02.167Z,56.05
2022-12-24T05:51:29.718Z,68.52
2022-12-24T05:53:57.353Z,56.20
2022-12-24T05:56:25.870Z,50.95
2022-12-24T05:58:54.579Z,58.63
2022-12-24T06:01:22.946Z,62.80
2022-12-24T06:03:52.313Z,61.28
2022-12-24T06:06:23.792Z,51.53
2022-12-24T06:08:53.406Z,44.50
2022-12-24T06:11:26.675Z,48.75
2022-12-24T06:13:55.276Z,46.35
2022-12-24T06:16:27.209Z,49.60
2022-12-24T06:18:54.876Z,55.65
2022-12-24T06:21:22.844Z,53.73
2022-12-24T06:23:50.805Z,94.58
2022-12-24T06:26:21.761Z,123.87
2022-12-24T06:28:51.424Z,95.05
2022-12-24T06:31:22.121Z,108.97
2022-12-24T06:33:50.104Z,153.55
2022-12-24T06:36:22.192Z,186.90
2022-12-24T06:38:51.296Z,96.95
2022-12-24T06:41:19.276Z,91.22
2022-12-24T06:43:49.741Z,80.95
2022-12-24T06:46:19.153Z,87.30
2022-12-24T06:48:47.973Z,89.67
2022-12-24T06:51:19.228Z,79.20
2022-12-24T06:53:50.096Z,76.47
2022-12-24T06:56:19.954Z,79.58
2022-12-24T06:58:47.989Z,74.80
2022-12-24T07:01:18.802Z,82.70
2022-12-24T07:03:47.277Z,69.77
2022-12-24T07:06:25.181Z,60.70
2022-12-24T07:08:53.382Z,55.90
2022-12-24T07:11:21.452Z,60.03
2022-12-24T07:13:49.069Z,51.25
2022-12-24T07:16:17.217Z,57.50
2022-12-24T07:18:45.264Z,57.20
2022-12-24T07:21:12.912Z,58.38
2022-12-24T07:23:40.747Z,52.48
2022-12-24T07:26:08.638Z,50.67
2022-12-24T07:28:36.072Z,42.88
2022-12-24T07:31:04.044Z,43.00
2022-12-24T07:33:31.778Z,41.08
2022-12-24T07:36:09.825Z,43.73
2022-12-24T07:38:38.218Z,37.95
2022-12-24T07:41:06.004Z,41.90
2022-12-24T07:43:33.965Z,44.60
2022-12-24T07:46:02.015Z,43.85
2022-12-24T07:48:31.258Z,42.58
2022-12-24T07:50:59.553Z,42.58
2022-12-24T07:53:29.948Z,45.03
2022-12-24T07:55:58.358Z,47.90
2022-12-24T07:58:26.143Z,49.95
2022-12-24T08:00:59.464Z,63.23
2022-12-24T08:03:27.923Z,63.52
2022-12-24T08:05:57.024Z,59.35
2022-12-24T08:08:25.272Z,63.58
2022-12-24T08:10:53.169Z,79.37
2022-12-24T08:13:20.898Z,80.95
2022-12-24T08:15:48.396Z,83.22
2022-12-24T08:18:15.978Z,84.58
2022-12-24T08:20:43.580Z,78.78
2022-12-24T08:23:10.951Z,74.72
2022-12-24T08:25:47.910Z,67.25
2022-12-24T08:28:18.056Z,68.33
2022-12-24T08:30:49.408Z,69.55
2022-12-24T08:33:17.820Z,66.33
2022-12-24T08:35:52.307Z,49.70
2022-12-24T08:38:20.564Z,52.83
2022-12-24T08:40:49.489Z,54.23
2022-12-24T08:43:17.563Z,40.28
2022-12-24T08:45:46.600Z,35.90
2022-12-24T08:48:14.878Z,38.60
2022-12-24T08:50:43.198Z,35.60
2022-12-24T08:53:11.452Z,34.25
2022-12-24T08:55:39.192Z,39.67
2022-12-24T08:58:06.934Z,42.33
2022-12-24T09:00:34.719Z,39.48
2022-12-24T09:03:02.685Z,39.38
2022-12-24T09:05:30.676Z,36.10
2022-12-24T09:07:58.694Z,48.95
2022-12-24T09:10:26.157Z,48.20
2022-12-24T09:12:54.059Z,38.98
2022-12-24T09:15:21.983Z,40.83
2022-12-24T09:17:49.545Z,33.67
2022-12-24T09:20:19.591Z,26.48
2022-12-24T09:22:47.230Z,24.82
2022-12-24T09:25:14.815Z,31.25
2022-12-24T09:27:42.441Z,35.23
2022-12-24T09:30:11.955Z,37.75
2022-12-24T09:32:39.698Z,40.67
2022-12-24T09:35:08.406Z,48.08
2022-12-24T09:37:37.377Z,45.58
2022-12-24T09:40:06.493Z,44.38
2022-12-24T09:42:52.986Z,39.13
2022-12-24T09:45:31.921Z,44.27
2022-12-24T09:48:14.186Z,51.20
2022-12-24T09:50:56.366Z,59.38
2022-12-24T09:53:55.300Z,46.77
2022-12-24T09:56:40.564Z,49.83
2022-12-24T09:59:27.650Z,40.20
2022-12-24T10:01:55.588Z,42.13
2022-12-24T10:04:28.622Z,41.20
2022-12-24T10:07:19.614Z,43.28
2022-12-24T10:09:58.784Z,39.73
2022-12-24T10:13:13.490Z,42.70
2022-12-24T10:18:49.676Z,28.65
2022-12-24T10:21:55.062Z,41.85
2022-12-24T10:24:34.162Z,34.05
2022-12-24T10:27:10.022Z,35.90
2022-12-24T10:29:45.678Z,43.02
2022-12-24T10:32:30.160Z,37.48
2022-12-24T10:35:18.201Z,33.02
2022-12-24T10:37:49.238Z,39.13
2022-12-24T10:40:39.955Z,38.73
2022-12-24T10:43:17.862Z,33.70
2022-12-24T10:45:56.025Z,34.63
2022-12-24T10:48:50.072Z,35.73
2022-12-24T11:06:01.146Z,28.32
2022-12-24T11:08:28.770Z,36.93
2022-12-24T11:11:07.177Z,40.58
2022-12-24T11:13:43.233Z,43.42
2022-12-24T11:16:25.694Z,43.15
2022-12-24T11:18:57.491Z,43.80
2022-12-24T11:21:32.636Z,52.90
2022-12-24T11:24:14.611Z,50.78
2022-12-24T11:26:44.037Z,46.90
2022-12-24T11:29:24.973Z,60.50
2022-12-24T11:32:05.469Z,89.03
2022-12-24T11:34:33.507Z,82.70
2022-12-24T11:37:18.743Z,78.35
2022-12-24T11:39:55.886Z,75.32
2022-12-24T11:42:33.402Z,67.75
2022-12-24T11:45:05.231Z,72.22
2022-12-24T11:47:37.564Z,70.70
2022-12-24T11:50:29.522Z,122.02
2022-12-24T11:53:18.917Z,115.92
2022-12-24T11:55:56.010Z,98.55
2022-12-24T11:58:41.246Z,88.75
2022-12-24T12:01:27.938Z,85.28
2022-12-24T12:04:21.588Z,77.78
2022-12-24T12:06:57.974Z,62.65
2022-12-24T12:09:33.316Z,58.17
2022-12-24T12:12:09.387Z,55.90
2022-12-24T12:14:57.029Z,57.62
2022-12-24T12:17:42.374Z,62.62
2022-12-24T12:20:30.225Z,60.95
2022-12-24T12:23:09.167Z,59.33
2022-12-24T12:26:08.185Z,72.40
2022-12-24T12:28:59.362Z,69.72
2022-12-24T12:31:47.353Z,70.95
2022-12-24T12:34:38.580Z,78.30
2022-12-24T12:37:32.572Z,79.92
2022-12-24T12:42:39.554Z,58.02
2022-12-24T12:45:31.940Z,60.00
2022-12-24T12:48:23.108Z,54.48
2022-12-24T12:51:04.789Z,55.33
2022-12-24T12:54:02.123Z,69.12
2022-12-24T12:56:35.670Z,69.37
2022-12-24T13:01:52.248Z,109.42
2022-12-24T13:05:09.254Z,132.10
2022-12-24T13:07:53.570Z,125.87
2022-12-24T13:10:32.584Z,101.18
2022-12-24T13:13:28.324Z,94.65
2022-12-24T13:16:32.026Z,80.35
2022-12-24T13:19:19.547Z,81.65
2022-12-24T13:21:50.280Z,90.47
2022-12-24T13:24:27.917Z,73.52
2022-12-24T13:27:09.593Z,79.58
2022-12-24T13:30:09.286Z,77.30
2022-12-24T13:32:42.424Z,75.17
2022-12-24T13:35:24.591Z,71.60
2022-12-24T13:37:52.307Z,77.00
2022-12-24T13:40:27.685Z,79.00
2022-12-24T13:43:08.331Z,78.65
2022-12-24T13:45:44.204Z,82.47
2022-12-24T13:48:17.453Z,80.15
2022-12-24T13:50:50.633Z,82.10
2022-12-24T13:53:44.302Z,87.90
2022-12-24T13:56:20.316Z,101.10
2022-12-24T13:58:52.340Z,97.67
2022-12-24T14:01:36.553Z,109.37
2022-12-24T14:04:08.807Z,118.37
2022-12-24T14:06:40.052Z,120.77
2022-12-24T14:09:21.790Z,108.52
2022-12-24T14:12:07.045Z,80.10
2022-12-24T14:14:40.237Z,58.73
2022-12-24T14:17:26.111Z,53.80
2022-12-24T14:19:58.189Z,48.50
2022-12-24T14:22:41.573Z,44.53
2022-12-24T14:25:20.986Z,44.15
2022-12-24T14:28:02.633Z,42.70
2022-12-24T14:30:32.866Z,46.75
2022-12-24T14:33:00.744Z,54.48
2022-12-24T14:35:38.500Z,49.30
2022-12-24T14:38:13.939Z,45.58
2022-12-24T14:41:16.745Z,59.63
2022-12-24T14:44:37.010Z,46.02
2022-12-24T14:47:16.376Z,64.75
2022-12-24T14:50:10.863Z,81.37
2022-12-24T14:53:09.432Z,73.65
2022-12-24T14:55:33.195Z,89.05
2022-12-24T14:58:31.122Z,95.65
2022-12-24T15:01:23.985Z,82.80
2022-12-24T15:04:14.853Z,71.23
2022-12-24T15:06:53.419Z,73.45
2022-12-24T15:09:29.021Z,70.60
2022-12-24T15:12:02.471Z,67.62
2022-12-24T15:14:34.392Z,67.37
2022-12-24T15:17:04.208Z,66.35
2022-12-24T15:19:39.414Z,234.35
2022-12-24T15:22:15.282Z,127.25
2022-12-24T15:24:47.695Z,102.95
2022-12-24T15:27:23.226Z,80.75
2022-12-24T15:29:56.301Z,75.65
2022-12-24T15:32:24.554Z,87.27
2022-12-24T15:34:54.668Z,91.87
2022-12-24T15:37:26.026Z,75.52
2022-12-24T15:39:58.032Z,72.25
2022-12-24T15:42:27.459Z,70.10
2022-12-24T15:45:06.759Z,88.50
2022-12-24T15:47:45.146Z,75.95
2022-12-24T15:50:30.298Z,65.80
2022-12-24T15:53:20.640Z,138.07
2022-12-24T15:55:38.586Z,99.67
2022-12-24T15:58:28.852Z,102.70
2022-12-24T16:01:10.398Z,119.95
2022-12-24T16:03:54.888Z,113.03
2022-12-24T16:06:23.716Z,128.95
2022-12-24T16:08:51.444Z,157.75
2022-12-24T16:11:30.098Z,137.97
2022-12-24T16:14:18.384Z,121.45
2022-12-24T16:16:53.194Z,111.28
2022-12-24T16:19:37.753Z,110.40
2022-12-24T16:22:04.562Z,124.80
2022-12-24T16:24:35.718Z,141.32
2022-12-24T16:27:08.901Z,128.35
2022-12-24T16:29:36.627Z,135.45
2022-12-24T16:32:04.613Z,140.47
2022-12-24T16:34:32.913Z,144.55
2022-12-24T16:37:01.051Z,155.70
2022-12-24T16:39:34.465Z,166.92
2022-12-24T16:42:23.066Z,177.62
2022-12-24T16:44:52.954Z,157.60
2022-12-24T16:47:30.367Z,164.75
2022-12-24T16:50:01.051Z,165.03
2022-12-24T16:52:33.090Z,156.47
2022-12-24T16:55:03.699Z,138.77
2022-12-24T16:57:33.641Z,132.43
2022-12-24T17:00:06.257Z,132.95
2022-12-24T17:02:35.348Z,120.50
2022-12-24T17:05:03.318Z,115.00
2022-12-24T17:07:31.401Z,117.08
2022-12-24T17:09:59.593Z,129.97
2022-12-24T17:12:27.337Z,174.75
2022-12-24T17:14:54.807Z,166.97
2022-12-24T17:17:28.906Z,171.60
2022-12-24T17:19:57.088Z,172.45
2022-12-24T17:22:27.247Z,155.22
2022-12-24T17:24:55.608Z,161.30
2022-12-24T17:27:24.126Z,161.03
2022-12-24T17:29:52.549Z,165.43
2022-12-24T17:32:20.310Z,160.30
2022-12-24T17:34:49.765Z,162.85
2022-12-24T17:37:17.745Z,161.20
2022-12-24T17:39:45.441Z,160.72
2022-12-24T17:42:13.166Z,160.67
2022-12-24T17:44:40.834Z,156.35
2022-12-24T17:47:08.374Z,155.00
2022-12-24T17:49:36.197Z,156.60
2022-12-24T17:52:04.336Z,153.45
2022-12-24T17:54:32.273Z,191.82
2022-12-24T17:56:59.940Z,212.55
2022-12-24T17:59:27.718Z,189.87
2022-12-24T18:01:55.461Z,159.45
2022-12-24T18:04:23.426Z,139.55
2022-12-24T18:06:53.769Z,134.55
2022-12-24T18:09:20.571Z,82.92
2022-12-24T18:11:48.835Z,83.22
2022-12-24T18:14:16.456Z,83.12
2022-12-24T18:16:44.074Z,70.50
2022-12-24T18:19:12.570Z,84.17
2022-12-24T18:21:40.811Z,90.60
2022-12-24T18:24:10.100Z,105.90
2022-12-24T18:26:38.312Z,104.65
2022-12-24T18:29:08.021Z,132.07
2022-12-24T18:31:36.418Z,136.00
2022-12-24T18:34:07.617Z,132.27
2022-12-24T18:36:35.401Z,138.15
2022-12-24T18:39:03.997Z,123.62
2022-12-24T18:41:31.620Z,114.82
2022-12-24T18:43:59.540Z,95.35
2022-12-24T18:46:33.410Z,100.67
2022-12-24T18:49:01.945Z,99.52
2022-12-24T18:51:34.768Z,131.80
2022-12-24T18:54:04.308Z,139.85
2022-12-24T18:56:32.452Z,140.00
2022-12-24T18:59:02.427Z,138.50
2022-12-24T19:01:34.277Z,124.97
2022-12-24T19:04:03.057Z,129.07
2022-12-24T19:06:30.648Z,137.25
2022-12-24T19:09:00.302Z,136.22
2022-12-24T19:11:31.208Z,135.68
2022-12-24T19:14:00.620Z,129.18
2022-12-24T19:16:32.237Z,137.15
2022-12-24T19:19:00.081Z,122.95
2022-12-24T19:21:28.123Z,125.07
2022-12-24T19:23:55.619Z,108.32
2022-12-24T19:26:23.714Z,91.05
2022-12-24T19:28:51.619Z,77.32
2022-12-24T19:31:23.677Z,75.85
2022-12-24T19:33:55.568Z,71.35
2022-12-24T19:36:28.452Z,65.83
2022-12-24T19:38:57.877Z,72.90
2022-12-24T19:41:28.689Z,73.70
2022-12-24T19:43:59.734Z,79.12
2022-12-24T19:46:32.399Z,84.87
2022-12-24T19:49:04.537Z,95.70
2022-12-24T19:51:33.312Z,92.02
2022-12-24T19:54:01.608Z,92.57
2022-12-24T19:56:32.143Z,97.92
2022-12-24T19:59:01.025Z,101.50
2022-12-24T20:01:32.152Z,105.58
2022-12-24T20:04:01.262Z,117.70
2022-12-24T20:06:33.573Z,124.97
2022-12-24T20:09:04.845Z,109.10
2022-12-24T20:11:33.494Z,95.60
2022-12-24T20:14:04.004Z,86.17
2022-12-24T20:16:31.894Z,106.83
2022-12-24T20:19:03.032Z,115.60
2022-12-24T20:21:31.454Z,113.95
2022-12-24T20:23:59.349Z,86.32
2022-12-24T20:26:28.597Z,72.85
2022-12-24T20:28:56.588Z,71.87
2022-12-24T20:31:29.371Z,70.50
2022-12-24T20:33:59.082Z,65.55
2022-12-24T20:36:29.382Z,65.52
2022-12-24T20:38:59.286Z,59.03
2022-12-24T20:41:30.017Z,59.03
2022-12-24T20:43:59.436Z,57.78
2022-12-24T20:46:28.370Z,61.23
2022-12-24T20:48:59.988Z,67.30
2022-12-24T20:51:28.422Z,74.62
2022-12-24T20:53:59.451Z,76.47
2022-12-24T20:56:27.890Z,83.65
2022-12-24T20:58:55.391Z,83.07
2022-12-24T21:01:25.996Z,79.72
2022-12-24T21:03:55.889Z,83.07
2022-12-24T21:06:24.438Z,86.97
2022-12-24T21:08:54.032Z,77.60
2022-12-24T21:11:40.678Z,79.45
2022-12-24T21:14:10.623Z,82.80
2022-12-24T21:16:40.021Z,82.70
2022-12-24T21:19:11.259Z,92.40
2022-12-24T21:21:38.856Z,86.12
2022-12-24T21:24:07.240Z,76.82
2022-12-24T21:26:35.265Z,77.27
2022-12-24T21:29:08.472Z,71.70
2022-12-24T21:31:37.548Z,67.87
2022-12-24T21:34:05.736Z,64.32
2022-12-24T21:36:33.769Z,56.45
2022-12-24T21:39:01.316Z,57.33
2022-12-24T21:41:28.966Z,52.98
2022-12-24T21:43:56.531Z,60.12
2022-12-24T21:46:25.502Z,53.52
2022-12-24T21:49:12.848Z,50.17
2022-12-24T21:51:42.839Z,48.00
2022-12-24T21:54:28.964Z,48.87
2022-12-24T21:57:20.086Z,48.50
2022-12-24T21:59:53.877Z,47.67
2022-12-24T22:02:26.664Z,50.70
2022-12-24T22:04:54.683Z,49.58
2022-12-24T22:07:44.251Z,50.58
2022-12-24T22:10:32.561Z,53.63
2022-12-24T22:13:02.974Z,58.98
2022-12-24T22:15:30.566Z,78.17
2022-12-24T22:17:58.478Z,72.53
2022-12-24T22:20:26.363Z,64.62
2022-12-24T22:22:53.855Z,62.33
2022-12-24T22:25:21.857Z,68.72
2022-12-24T22:27:49.317Z,81.95
2022-12-24T22:30:17.238Z,88.65
2022-12-24T22:32:44.888Z,71.53
2022-12-24T22:35:12.729Z,80.77
2022-12-24T22:37:40.445Z,85.57
2022-12-24T22:40:10.417Z,80.60
2022-12-24T22:42:37.988Z,86.67
2022-12-24T22:45:06.774Z,82.33
2022-12-24T22:47:34.675Z,75.00
2022-12-24T22:50:02.369Z,71.50
2022-12-24T22:52:35.427Z,70.83
2022-12-24T22:55:03.366Z,70.05
2022-12-24T22:57:31.350Z,66.45
2022-12-24T22:59:58.917Z,59.33
2022-12-24T23:02:28.680Z,67.82
2022-12-24T23:04:56.266Z,66.30
2022-12-24T23:07:24.484Z,65.47
2022-12-24T23:09:51.893Z,57.27
2022-12-24T23:12:21.501Z,45.40
2022-12-24T23:14:58.182Z,42.45
2022-12-24T23:17:25.726Z,43.68
2022-12-24T23:19:53.371Z,44.55
2022-12-24T23:22:20.984Z,49.85
2022-12-24T23:24:48.573Z,47.85
2022-12-24T23:27:16.420Z,47.80
2022-12-24T23:29:44.146Z,45.30
2022-12-24T23:32:11.731Z,42.70
2022-12-24T23:34:39.358Z,46.33
2022-12-24T23:37:07.185Z,47.43
2022-12-24T23:39:34.825Z,45.58
2022-12-24T23:42:02.470Z,38.48
2022-12-24T23:44:32.566Z,37.10
2022-12-24T23:46:59.721Z,35.08
2022-12-24T23:49:27.807Z,37.93
2022-12-24T23:51:55.455Z,35.03
2022-12-24T23:54:22.751Z,32.38
2022-12-24T23:56:50.168Z,30.30
2022-12-24T23:59:17.904Z,32.30
